Time;durP1;ratioP1;P1;durP2;ratioP2;P2;SDS_P1;SDS_P2;PMS_P1;PMS_P2;Temp;Humidity;BMP_temperature;BMP_pressure;BME280_temperature;BME280_humidity;BME280_pressure;Samples;Min_cycle;Max_cycle;Signal;HPM_P1;HPM_P2
2023/10/17 00:01:46;;;;;;;4.15;2.72;;;;;;;19.17;39.53;93521.19;6073592;23;20018;-89
2023/10/17 00:04:25;;;;;;;;;;;;;;;;;;;;;
2023/10/17 00:06:37;;;;;;;3.25;2.20;;;;;;;19.18;39.83;93519.19;6070085;23;20018;-89
2023/10/17 00:09:07;;;;;;;3.38;2.35;;;;;;;19.17;39.43;93515.72;6071714;23;20017;-89
2023/10/17 00:11:44;;;;;;;3.90;2.60;;;;;;;19.18;39.69;93506.22;6049021;23;20028;-88
2023/10/17 00:14:11;;;;;;;4.13;2.10;;;;;;;19.18;39.75;93510.97;6117531;23;20387;-88
2023/10/17 00:16:37;;;;;;;2.97;2.30;;;;;;;19.19;39.41;93517.94;6072127;23;20022;-89
2023/10/17 00:19:09;;;;;;;3.17;2.20;;;;;;;19.17;39.89;93528.66;6070858;23;20018;-88
2023/10/17 00:21:36;;;;;;;4.30;3.03;;;;;;;19.14;39.69;93530.44;6088353;23;20621;-88
2023/10/17 00:24:08;;;;;;;3.85;2.33;;;;;;;19.17;39.70;93531.41;6065946;23;20015;-88
2023/10/17 00:26:39;;;;;;;3.42;2.47;;;;;;;19.16;39.49;93535.41;6044571;23;20018;-89
2023/10/17 00:29:07;;;;;;;3.13;2.38;;;;;;;19.16;39.50;93535.41;6065324;23;20497;-89
2023/10/17 00:31:33;;;;;;;2.13;1.65;;;;;;;19.17;39.49;93528.66;6042762;23;20018;-89
2023/10/17 00:34:12;;;;;;;2.65;2.10;;;;;;;19.12;39.53;93524.72;6042696;23;20041;-89
2023/10/17 00:36:47;;;;;;;3.50;2.22;;;;;;;19.14;39.62;93521.47;6074271;23;20407;-88
2023/10/17 00:39:16;;;;;;;3.05;2.30;;;;;;;19.14;39.89;93511.25;6033051;23;20447;-89
2023/10/17 00:41:52;;;;;;;3.38;1.95;;;;;;;19.13;39.81;93507.03;6067657;23;20018;-89
2023/10/17 00:44:27;;;;;;;2.58;1.70;;;;;;;19.14;39.86;93505.78;6066507;23;20037;-89
2023/10/17 00:46:53;;;;;;;3.03;2.00;;;;;;;19.14;39.59;93499.53;6068486;23;20513;-88
2023/10/17 00:49:21;;;;;;;3.13;2.00;;;;;;;19.12;39.66;93496.56;6065824;23;20027;-89
2023/10/17 00:51:48;;;;;;;2.78;2.17;;;;;;;19.11;39.51;93493.09;6065610;23;20045;-89
2023/10/17 00:54:14;;;;;;;3.38;2.20;;;;;;;19.12;39.64;93488.34;6065881;23;20026;-88
2023/10/17 00:56:43;;;;;;;3.00;1.80;;;;;;;19.14;39.65;93502.28;6067787;23;20034;-89
2023/10/17 00:59:10;;;;;;;2.70;1.70;;;;;;;19.12;39.66;93504.78;6065984;23;20046;-89
2023/10/17 01:01:36;;;;;;;2.35;1.80;;;;;;;19.13;39.72;93498.81;6068374;23;20021;-89
2023/10/17 01:04:01;;;;;;;2.33;1.40;;;;;;;19.13;39.83;93504.28;6068118;23;20014;-89
2023/10/17 01:08:58;;;;;;;2.33;1.70;;;;;;;19.11;39.57;93495.84;6092111;23;20065;-89
2023/10/17 01:11:30;;;;;;;3.30;1.85;;;;;;;19.11;39.54;93495.84;6066991;23;20515;-88
2023/10/17 01:13:57;;;;;;;2.78;1.80;;;;;;;19.13;39.77;93495.31;6067363;23;20061;-88
2023/10/17 01:16:24;;;;;;;3.85;2.10;;;;;;;19.11;39.71;93495.84;6090355;23;20033;-89
2023/10/17 01:18:49;;;;;;;2.67;1.48;;;;;;;19.10;39.72;93497.09;6067740;23;20022;-89
2023/10/17 01:21:18;;;;;;;2.08;1.55;;;;;;;19.11;39.69;93503.31;6077738;23;20146;-89
2023/10/17 01:23:45;;;;;;;3.13;1.80;;;;;;;19.13;39.48;93501.53;6067571;23;20015;-88
2023/10/17 01:26:14;;;;;;;2.47;2.00;;;;;;;19.12;39.24;93496.56;6065433;23;20014;-89
2023/10/17 01:28:45;;;;;;;2.45;1.60;;;;;;;19.11;39.63;93486.88;6066103;23;20121;-90
2023/10/17 01:31:14;;;;;;;3.55;1.52;;;;;;;19.13;39.35;93490.59;6090320;23;20391;-89
2023/10/17 01:33:43;;;;;;;2.38;1.85;;;;;;;19.13;39.47;93484.38;6091980;23;20446;-89
2023/10/17 01:36:09;;;;;;;2.45;1.58;;;;;;;19.10;39.28;93480.66;6064526;23;20304;-88
2023/10/17 01:38:35;;;;;;;3.60;1.80;;;;;;;19.11;39.51;93481.38;6067243;23;20096;-89
2023/10/17 01:41:00;;;;;;;2.85;1.83;;;;;;;19.10;39.50;93474.41;6091273;23;20435;-88
2023/10/17 01:43:30;;;;;;;3.35;1.38;;;;;;;19.11;39.56;93473.16;6090412;23;20029;-88
2023/10/17 01:45:57;;;;;;;3.03;1.80;;;;;;;19.10;39.44;93477.16;6068229;23;20014;-91
2023/10/17 01:48:25;;;;;;;3.80;1.45;;;;;;;19.10;39.52;93466.94;6066951;23;20027;-90
2023/10/17 01:50:50;;;;;;;2.67;1.45;;;;;;;19.10;39.72;93464.22;6089288;23;20029;-88
2023/10/17 01:53:16;;;;;;;2.42;1.65;;;;;;;19.08;39.60;93455.75;6067103;23;20340;-89
2023/10/17 01:55:51;;;;;;;2.08;1.65;;;;;;;19.06;39.52;93452.78;6067575;23;20018;-90
2023/10/17 01:58:18;;;;;;;1.85;1.50;;;;;;;19.07;39.81;93465.22;6067682;23;20015;-89
2023/10/17 02:00:44;;;;;;;2.75;1.90;;;;;;;19.04;39.64;93463.53;6069126;23;20026;-89
2023/10/17 02:03:12;;;;;;;2.35;1.60;;;;;;;19.07;39.29;93464.47;6093121;23;20019;-88
2023/10/17 02:05:38;;;;;;;2.00;1.60;;;;;;;19.05;39.59;93470.47;6092845;23;20018;-89
2023/10/17 02:08:05;;;;;;;2.13;1.60;;;;;;;19.07;39.47;93459.00;6091946;23;20025;-88
2023/10/17 02:10:30;;;;;;;2.63;1.50;;;;;;;19.06;39.65;93463.75;6068991;23;20046;-88
2023/10/17 02:12:55;;;;;;;2.45;1.60;;;;;;;19.07;39.39;93459.00;6091213;23;20026;-88
2023/10/17 02:15:23;;;;;;;2.25;1.60;;;;;;;19.06;39.47;93466.47;6090978;23;20054;-90
2023/10/17 02:17:50;;;;;;;2.17;1.50;;;;;;;19.08;39.60;93455.75;6067867;23;20051;-88
2023/10/17 02:20:21;;;;;;;1.73;1.25;;;;;;;19.07;39.53;93448.03;6066408;23;20438;-88
2023/10/17 02:22:51;;;;;;;3.50;1.52;;;;;;;19.07;39.46;93443.31;6069657;23;20145;-88
2023/10/17 02:25:21;;;;;;;3.45;1.67;;;;;;;19.06;39.48;93443.81;6067306;23;20018;-89
2023/10/17 02:27:47;;;;;;;2.03;1.43;;;;;;;19.04;39.62;93438.13;6068656;23;20018;-88
2023/10/17 02:30:13;;;;;;;2.40;1.20;;;;;;;19.08;39.74;93449.53;6066783;23;20394;-89
2023/10/17 02:32:46;;;;;;;2.42;1.48;;;;;;;19.06;39.47;93444.56;6091604;23;20014;-88
2023/10/17 02:35:15;;;;;;;2.50;1.50;;;;;;;19.05;39.59;93442.38;6068900;23;20033;-89
2023/10/17 02:37:45;;;;;;;2.72;1.58;;;;;;;19.06;39.74;93447.31;6069794;23;20021;-89
2023/10/17 02:40:20;;;;;;;2.78;1.23;;;;;;;19.05;39.76;93434.16;6068563;23;20054;-89
2023/10/17 02:42:46;;;;;;;2.50;1.58;;;;;;;19.03;39.95;93445.63;6071906;23;20316;-88
2023/10/17 02:45:12;;;;;;;1.40;1.30;;;;;;;19.04;39.60;93444.38;6091618;23;20124;-89
2023/10/17 02:47:37;;;;;;;2.20;1.10;;;;;;;19.03;39.40;93444.88;6091953;23;20018;-89
2023/10/17 02:50:20;;;;;;;2.20;1.40;;;;;;;19.02;39.54;93449.63;6065434;23;20347;-88
2023/10/17 02:52:51;;;;;;;1.30;1.00;;;;;;;19.02;39.69;93446.13;6074983;23;20450;-89
2023/10/17 02:55:23;;;;;;;2.40;1.17;;;;;;;19.03;39.50;93445.63;6069294;23;20011;-89
2023/10/17 02:57:52;;;;;;;2.42;1.25;;;;;;;19.02;39.56;93443.38;6091875;23;20023;-90
2023/10/17 03:00:22;;;;;;;2.67;1.20;;;;;;;18.99;39.49;93436.94;6067431;23;20148;-89
2023/10/17 03:02:51;;;;;;;2.50;1.20;;;;;;;19.01;39.51;93444.66;6068794;23;20091;-89
2023/10/17 03:05:18;;;;;;;2.80;1.60;;;;;;;19.01;39.65;93441.91;6065840;23;20026;-89
2023/10/17 03:07:49;;;;;;;1.30;1.20;;;;;;;19.01;39.65;93444.66;6068221;23;20019;-89
2023/10/17 03:10:20;;;;;;;1.77;1.23;;;;;;;19.02;39.79;93435.91;6091011;23;20010;-89
2023/10/17 03:13:03;;;;;;;2.05;1.30;;;;;;;19.02;39.43;93432.44;6092193;23;20011;-90
2023/10/17 03:15:29;;;;;;;1.65;0.98;;;;;;;19.01;39.61;93433.69;6070568;23;20494;-89
2023/10/17 03:18:00;;;;;;;2.00;1.20;;;;;;;19.01;39.73;93437.16;6069102;23;20089;-89
2023/10/17 03:20:36;;;;;;;2.25;1.30;;;;;;;19.01;39.46;93420.72;6071999;23;20030;-89
2023/10/17 03:23:04;;;;;;;1.67;1.17;;;;;;;18.99;39.51;93419.75;6077685;23;20147;-88
2023/10/17 03:25:37;;;;;;;1.52;1.30;;;;;;;18.96;39.53;93415.31;6071429;23;20022;-89
2023/10/17 03:28:13;;;;;;;2.53;1.20;;;;;;;19.04;39.44;93422.44;6071463;23;20063;-90
2023/10/17 03:30:38;;;;;;;3.58;1.50;;;;;;;19.03;39.48;93420.97;6076129;23;20355;-90
2023/10/17 03:33:08;;;;;;;24.98;17.08;;;;;;;19.05;39.34;93426.63;6072257;23;20022;-92
2023/10/17 03:35:45;;;;;;;5.38;4.13;;;;;;;19.09;39.28;93431.84;6046990;23;20454;-88
2023/10/17 03:38:14;;;;;;;8.77;5.28;;;;;;;19.15;39.16;93430.53;6075241;23;20014;-90
2023/10/17 03:40:53;;;;;;;5.88;4.15;;;;;;;19.18;39.46;93428.75;6074808;23;20052;-91
2023/10/17 03:43:21;;;;;;;13.32;7.32;;;;;;;19.23;39.45;93427.97;6099453;23;20014;-91
2023/10/17 03:45:52;;;;;;;111.20;79.15;;;;;;;19.32;39.08;93430.34;6078484;23;20022;-93
2023/10/17 03:48:20;;;;;;;15.98;9.68;;;;;;;19.30;39.12;93437.59;6073961;23;20403;-90
2023/10/17 03:53:15;;;;;;;14.77;10.75;;;;;;;19.20;38.81;93429.00;6096344;23;20013;-89
2023/10/17 03:55:48;;;;;;;12.57;9.02;;;;;;;19.20;39.17;93428.25;6071579;23;20446;-90
2023/10/17 04:00:50;;;;;;;17.90;10.55;;;;;;;19.12;39.33;93423.34;5986407;23;20023;-89
2023/10/17 04:03:21;;;;;;;34.92;17.15;;;;;;;19.13;39.49;93415.84;5981053;23;20015;-88
2023/10/17 04:05:49;;;;;;;66.35;28.85;;;;;;;19.07;38.77;93409.69;5984176;23;20460;-89
2023/10/17 04:08:17;;;;;;;72.63;32.05;;;;;;;19.05;39.18;93420.44;5981754;23;20600;-89
2023/10/17 04:11:08;;;;;;;74.18;30.27;;;;;;;19.10;39.25;93414.16;5978442;23;20745;-90
2023/10/17 04:13:37;;;;;;;63.97;30.00;;;;;;;19.06;39.23;93408.22;5988456;23;20481;-90
2023/10/17 04:16:10;;;;;;;73.05;33.55;;;;;;;19.04;39.31;93402.53;5958112;23;20107;-92
2023/10/17 04:18:38;;;;;;;128.07;62.25;;;;;;;19.03;39.12;93407.25;5982784;23;20023;-92
2023/10/17 04:21:18;;;;;;;105.85;50.13;;;;;;;19.12;38.48;93404.16;5993729;23;20060;-88
2023/10/17 04:23:49;;;;;;;92.47;41.42;;;;;;;19.01;38.40;93409.03;6006508;23;20022;-89
2023/10/17 04:26:18;;;;;;;92.13;37.85;;;;;;;19.01;38.75;93407.03;6003149;23;20015;-91
2023/10/17 04:28:50;;;;;;;90.43;39.78;;;;;;;19.00;38.87;93397.31;6010835;23;20057;-89
2023/10/17 04:31:25;;;;;;;103.47;49.78;;;;;;;19.02;38.75;93400.28;6070584;23;20010;-88
2023/10/17 04:34:06;;;;;;;114.15;51.42;;;;;;;19.06;39.01;93400.72;6072606;23;20032;-89
2023/10/17 04:36:37;;;;;;;126.63;57.42;;;;;;;19.05;38.92;93401.97;6122221;23;20072;-90
2023/10/17 04:39:13;;;;;;;122.43;64.07;;;;;;;19.06;39.42;93398.00;6082078;23;20078;-88
2023/10/17 04:44:21;;;;;;;92.82;42.85;;;;;;;19.06;39.27;93392.50;6072357;23;20584;-90
2023/10/17 04:46:50;;;;;;;92.75;47.50;;;;;;;19.10;39.15;93384.00;6075886;23;20022;-88
2023/10/17 04:49:19;;;;;;;110.00;57.70;;;;;;;19.08;39.33;93392.72;6080303;23;20069;-92
2023/10/17 04:51:45;;;;;;;135.02;67.90;;;;;;;19.11;39.32;93386.22;6074024;23;20014;-93
2023/10/17 04:54:31;;;;;;;136.55;64.68;;;;;;;19.09;39.54;93393.47;6074646;23;20017;-93
2023/10/17 04:57:00;;;;;;;119.65;58.22;;;;;;;19.10;38.63;93398.44;6073392;23;20020;-90
2023/10/17 05:07:28;;;;;;;119.55;56.78;;;;;;;19.06;38.85;93403.47;6043673;23;20070;-91
2023/10/17 06:18:28;;;;;;;99.20;54.35;;;;;;;19.21;39.00;93416.78;5993862;23;20046;-93
2023/10/17 06:24:06;;;;;;;94.32;50.97;;;;;;;19.23;39.25;93413.53;5992953;23;20086;-93
2023/10/17 06:34:19;;;;;;;52.92;26.35;;;;;;;18.99;35.31;93408.78;6101538;23;20022;-94
2023/10/17 06:36:53;;;;;;;61.35;27.13;;;;;;;18.96;35.75;93413.31;6074759;23;20070;-93
2023/10/17 06:39:24;;;;;;;137.95;45.40;;;;;;;19.01;36.43;93422.72;6045721;23;20023;-91
2023/10/17 06:41:52;;;;;;;174.75;56.10;;;;;;;19.06;36.89;93422.66;6052617;23;20030;-91
2023/10/17 06:44:23;;;;;;;117.57;46.85;;;;;;;19.11;37.27;93418.38;6014746;23;20041;-92
2023/10/17 06:46:58;;;;;;;;;;;;;;;19.17;38.04;93419.06;6006639;23;20592;-93
2023/10/17 06:54:50;;;;;;;82.55;39.63;;;;;;;19.11;37.39;93421.09;6050302;23;20274;-92
2023/10/17 06:57:19;;;;;;;77.80;35.83;;;;;;;19.03;37.10;93412.75;6040687;23;20030;-92
2023/10/17 06:59:53;;;;;;;75.65;38.92;;;;;;;19.04;37.22;93419.69;6009738;23;20060;-93
2023/10/17 07:02:41;;;;;;;78.40;36.58;;;;;;;19.07;37.47;93426.88;6040227;23;20027;-91
2023/10/17 07:05:08;;;;;;;72.82;38.40;;;;;;;19.10;37.86;93430.59;6065416;23;20019;-92
2023/10/17 07:07:40;;;;;;;73.13;36.50;;;;;;;19.11;38.32;93432.06;6068479;23;20031;-92
2023/10/17 07:10:17;;;;;;;89.22;43.05;;;;;;;19.12;38.25;93428.81;6030003;22;20011;-91
2023/10/17 07:12:50;;;;;;;122.90;57.47;;;;;;;19.13;38.62;93433.03;6130869;23;20022;-92
2023/10/17 07:15:29;;;;;;;112.78;57.97;;;;;;;19.18;38.12;93431.50;6099084;23;20087;-93
2023/10/17 07:21:15;;;;;;;119.63;59.17;;;;;;;19.17;38.52;93441.72;6122838;23;20021;-93
2023/10/17 07:23:27;;;;;;;111.05;55.28;;;;;;;19.21;37.16;93440.69;6119247;23;20104;-93
2023/10/17 07:26:10;;;;;;;121.63;61.78;;;;;;;19.07;37.60;93446.06;6103930;23;20659;-92
2023/10/17 07:28:55;;;;;;;140.75;65.28;;;;;;;19.15;37.91;93441.50;6121778;23;20037;-93
2023/10/17 07:31:24;;;;;;;191.73;76.15;;;;;;;19.15;37.85;93441.50;6047992;23;20038;-94
2023/10/17 07:36:39;;;;;;;160.45;79.82;;;;;;;19.16;38.38;93444.97;6095006;23;20112;-93
2023/10/17 07:39:07;;;;;;;157.65;76.35;;;;;;;19.19;38.12;93438.47;6106752;23;20057;-93
2023/10/17 07:41:36;;;;;;;145.30;69.45;;;;;;;19.21;37.98;93449.66;6123486;23;20018;-92
2023/10/17 07:44:19;;;;;;;129.18;61.50;;;;;;;19.21;37.95;93449.66;6124807;23;20010;-94
2023/10/17 07:46:50;;;;;;;111.05;61.63;;;;;;;19.20;37.88;93448.16;6146004;23;20081;-92
2023/10/17 07:49:25;;;;;;;;;;;;;;;19.25;37.81;93454.84;6143801;23;20020;-93
2023/10/17 07:51:55;;;;;;;87.47;46.53;;;;;;;19.14;37.19;93461.94;6110265;23;19919;-94
2023/10/17 07:54:28;;;;;;;79.93;42.50;;;;;;;19.14;37.69;93464.66;6108315;23;20014;-91
2023/10/17 07:56:55;;;;;;;181.07;70.82;;;;;;;19.25;37.02;93474.78;6147284;23;20389;-92
2023/10/17 07:59:30;;;;;;;74.38;39.05;;;;;;;19.16;36.43;93464.91;6118943;23;20091;-92
2023/10/17 08:01:59;;;;;;;98.13;42.13;;;;;;;19.16;37.11;93470.38;6126340;23;20022;-93
2023/10/17 08:04:30;;;;;;;90.50;42.38;;;;;;;19.13;36.28;93460.44;6120932;23;20385;-93
2023/10/17 08:06:56;;;;;;;86.18;35.83;;;;;;;19.09;36.32;93459.97;6127478;23;20018;-92
2023/10/17 08:11:53;;;;;;;79.60;36.95;;;;;;;19.20;37.58;93444.69;6131962;23;20024;-92
2023/10/17 08:14:22;;;;;;;81.13;37.03;;;;;;;19.26;37.76;93432.41;6129301;23;20049;-92
2023/10/17 08:16:49;;;;;;;65.07;33.00;;;;;;;19.22;38.10;93459.38;6103731;23;20489;-92
2023/10/17 08:19:23;;;;;;;64.47;32.85;;;;;;;19.24;38.26;93465.06;6128981;23;20029;-92
2023/10/17 08:30:14;;;;;;;101.82;54.30;;;;;;;19.24;38.12;93465.06;6176976;23;20022;-93
2023/10/17 08:32:57;;;;;;;117.13;53.25;;;;;;;19.25;38.28;93452.13;6158006;23;20405;-94
2023/10/17 08:35:38;;;;;;;107.03;55.95;;;;;;;19.23;38.11;93446.41;6137076;23;20021;-92
2023/10/17 08:38:07;;;;;;;100.45;47.30;;;;;;;19.24;38.41;93440.41;6123267;23;20014;-92
2023/10/17 08:43:06;;;;;;;90.35;48.92;;;;;;;19.24;38.48;93442.41;6146634;23;20016;-92
2023/10/17 08:45:36;;;;;;;205.98;118.20;;;;;;;19.24;38.21;93440.41;6122137;23;20013;-91
2023/10/17 08:48:11;;;;;;;109.25;54.08;;;;;;;19.29;38.25;93439.59;6132133;23;20021;-94
2023/10/17 08:50:39;;;;;;;161.10;77.30;;;;;;;19.39;37.81;93437.97;6131073;23;20021;-91
2023/10/17 08:53:23;;;;;;;126.78;58.75;;;;;;;19.35;38.14;93434.03;6105654;23;20472;-93
2023/10/17 08:55:52;;;;;;;206.70;90.28;;;;;;;19.38;36.63;93435.75;6152752;23;20013;-94
2023/10/17 08:58:20;;;;;;;134.35;52.13;;;;;;;19.32;37.45;93429.59;6123641;23;20025;-92
2023/10/17 09:03:35;;;;;;;279.83;203.20;;;;;;;19.36;37.94;93435.53;6153087;23;20013;-93
2023/10/17 09:08:55;;;;;;;86.22;46.67;;;;;;;19.42;37.89;93436.22;6160237;23;20021;-91
2023/10/17 09:11:41;;;;;;;74.53;37.25;;;;;;;19.25;36.14;93419.22;6172386;23;20045;-94
2023/10/17 09:14:17;;;;;;;95.32;47.75;;;;;;;19.23;37.04;93422.47;6132269;23;20040;-88
2023/10/17 09:16:49;;;;;;;151.98;69.97;;;;;;;19.24;36.70;93423.22;6158607;23;20441;-89
2023/10/17 09:19:14;;;;;;;172.25;90.43;;;;;;;19.26;38.11;93426.19;6145081;23;20032;-91
2023/10/17 09:21:44;;;;;;;210.05;101.55;;;;;;;19.31;37.83;93422.63;6157429;23;20026;-89
2023/10/17 09:24:37;;;;;;;224.55;110.28;;;;;;;19.31;38.06;93428.09;6128922;23;20151;-87
2023/10/17 09:27:06;;;;;;;190.85;95.32;;;;;;;19.31;37.94;93423.38;6142421;23;20104;-90
2023/10/17 09:29:43;;;;;;;210.02;104.03;;;;;;;19.28;37.94;93424.41;6157259;23;20013;-88
2023/10/17 09:32:32;;;;;;;213.63;97.45;;;;;;;19.33;38.01;93420.84;6159354;23;20040;-94
2023/10/17 09:35:03;;;;;;;222.13;101.45;;;;;;;19.32;38.06;93422.13;6157262;23;20051;-90
2023/10/17 09:37:28;;;;;;;216.45;102.72;;;;;;;19.32;38.22;93427.59;6125260;23;20358;-88
2023/10/17 09:39:56;;;;;;;216.27;97.25;;;;;;;19.34;37.75;93425.06;6180992;23;20009;-88
2023/10/17 09:42:21;;;;;;;201.70;96.35;;;;;;;19.32;38.12;93421.38;6109460;23;20025;-89
2023/10/17 09:44:47;;;;;;;195.60;99.43;;;;;;;19.36;37.95;93421.81;6079630;23;20022;-88
2023/10/17 09:47:12;;;;;;;233.35;129.02;;;;;;;19.39;37.77;93423.53;6125915;23;20093;-92
2023/10/17 09:49:44;;;;;;;188.07;102.15;;;;;;;19.35;38.63;93418.34;6089548;23;20046;-90
2023/10/17 09:52:10;;;;;;;206.57;105.07;;;;;;;19.41;37.91;93418.28;6057264;23;20053;-91
2023/10/17 09:54:40;;;;;;;193.00;102.70;;;;;;;19.41;37.84;93410.06;6073978;23;20190;-92
2023/10/17 09:57:12;;;;;;;184.05;102.28;;;;;;;19.40;37.58;93414.06;6091805;23;20089;-91
2023/10/17 09:59:41;;;;;;;186.25;91.68;;;;;;;19.40;37.55;93414.78;6100395;23;20013;-91
2023/10/17 10:02:08;;;;;;;172.88;99.63;;;;;;;19.42;37.75;93414.28;6068813;23;20032;-92
2023/10/17 10:04:34;;;;;;;153.75;85.00;;;;;;;19.41;37.60;93408.06;6096124;23;20018;-90
2023/10/17 10:07:20;;;;;;;142.00;76.70;;;;;;;19.42;37.41;93404.06;6100340;23;20010;-93
2023/10/17 10:09:46;;;;;;;148.32;82.60;;;;;;;19.38;37.72;93416.56;6118022;23;20272;-93
2023/10/17 10:12:14;;;;;;;130.38;69.20;;;;;;;19.40;37.78;93422.28;6089293;23;20032;-90
2023/10/17 10:14:42;;;;;;;135.55;74.40;;;;;;;19.47;37.81;93418.97;6095662;23;20042;-90
2023/10/17 10:17:09;;;;;;;117.35;66.47;;;;;;;19.47;37.47;93414.22;6099536;23;20040;-90
2023/10/17 10:19:40;;;;;;;121.43;64.68;;;;;;;19.45;37.94;93408.50;6102199;23;20018;-91
2023/10/17 10:22:07;;;;;;;119.07;65.15;;;;;;;19.44;38.02;93406.28;6144720;23;20038;-90
2023/10/17 10:24:34;;;;;;;92.25;54.10;;;;;;;19.43;37.71;93404.81;6100819;23;20024;-90
2023/10/17 10:27:08;;;;;;;113.93;60.72;;;;;;;19.49;38.31;93399.97;6121089;23;20018;-91
2023/10/17 10:29:34;;;;;;;92.47;58.45;;;;;;;19.47;37.60;93405.25;6150704;23;20018;-90
2023/10/17 10:32:05;;;;;;;99.15;57.42;;;;;;;19.44;37.97;93406.28;6105060;23;20022;-90
2023/10/17 10:34:35;;;;;;;95.28;55.15;;;;;;;19.48;38.06;93404.00;6134871;23;20014;-88
2023/10/17 10:37:01;;;;;;;83.03;45.28;;;;;;;19.45;38.34;93397.53;6115931;23;20097;-91
2023/10/17 10:39:38;;;;;;;75.68;46.28;;;;;;;19.44;38.59;93401.53;6113633;23;20026;-90
2023/10/17 10:42:07;;;;;;;87.75;51.28;;;;;;;19.45;38.37;93394.06;6113838;23;20423;-91
2023/10/17 10:44:42;;;;;;;79.85;51.45;;;;;;;19.50;38.35;93385.03;6118237;23;20438;-91
2023/10/17 10:47:08;;;;;;;75.93;45.53;;;;;;;19.52;37.98;93391.47;6113993;23;20037;-90
2023/10/17 10:49:40;;;;;;;68.90;42.72;;;;;;;19.45;38.38;93391.31;6113154;23;20025;-91
2023/10/17 10:52:08;;;;;;;66.20;41.55;;;;;;;19.48;38.26;93385.53;6120893;23;20029;-93
2023/10/17 10:54:59;;;;;;;81.38;43.95;;;;;;;19.43;38.47;93391.09;6122082;23;20021;-90
2023/10/17 10:57:29;;;;;;;99.63;43.30;;;;;;;19.44;38.55;93376.88;6119279;23;20041;-91
2023/10/17 10:59:55;;;;;;;131.07;49.63;;;;;;;19.46;38.65;93370.88;6134252;23;20018;-91
2023/10/17 11:02:20;;;;;;;103.05;45.13;;;;;;;19.49;38.42;93375.28;6083021;23;20055;-91
2023/10/17 11:04:48;;;;;;;107.38;47.55;;;;;;;19.49;38.52;93364.31;6127320;23;20424;-92
2023/10/17 11:07:20;;;;;;;128.73;50.05;;;;;;;19.50;38.67;93376.81;6121406;23;20634;-88
2023/10/17 11:10:00;;;;;;;116.90;54.25;;;;;;;19.44;38.46;93371.38;6104728;23;20023;-87
2023/10/17 11:12:26;;;;;;;105.18;48.08;;;;;;;19.46;38.65;93376.34;6098975;23;20040;-91
2023/10/17 11:15:08;;;;;;;117.93;49.17;;;;;;;19.50;38.66;93363.84;6125427;23;20013;-91
2023/10/17 11:17:34;;;;;;;103.05;46.97;;;;;;;19.57;38.32;93373.47;6078420;23;20014;-89
2023/10/17 11:20:00;;;;;;;185.23;63.63;;;;;;;19.47;38.68;93361.38;6123797;23;20339;-92
2023/10/17 11:22:28;;;;;;;121.18;46.55;;;;;;;19.48;38.64;93360.88;6127671;23;20021;-90
2023/10/17 11:24:55;;;;;;;115.50;47.55;;;;;;;19.50;38.77;93363.84;6086286;23;20017;-93
2023/10/17 11:27:22;;;;;;;116.13;45.70;;;;;;;19.48;38.88;93352.66;6106332;23;20476;-89
2023/10/17 11:29:59;;;;;;;132.23;53.05;;;;;;;19.50;38.65;93360.34;6138291;23;20100;-91
2023/10/17 11:32:26;;;;;;;104.75;46.55;;;;;;;19.54;38.49;93351.84;6129831;23;20025;-90
2023/10/17 11:35:05;;;;;;;100.63;43.95;;;;;;;19.51;39.12;93353.63;6106175;23;20014;-91
2023/10/17 11:37:34;;;;;;;103.35;45.70;;;;;;;19.50;39.07;93347.38;6081998;23;20025;-92
2023/10/17 11:40:07;;;;;;;104.63;50.05;;;;;;;19.52;38.83;93344.88;6105020;23;20017;-91
2023/10/17 11:42:35;;;;;;;131.27;57.33;;;;;;;19.52;38.98;93339.38;6093116;23;20028;-92
2023/10/17 11:45:18;;;;;;;122.70;55.63;;;;;;;19.52;38.89;93336.63;6135969;23;20096;-88
2023/10/17 11:47:44;;;;;;;158.18;76.95;;;;;;;19.52;38.87;93339.38;6114585;23;20018;-94
2023/10/17 11:50:09;;;;;;;151.55;72.80;;;;;;;19.52;38.99;93344.88;6134307;23;20097;-89
2023/10/17 11:52:35;;;;;;;175.05;92.75;;;;;;;19.52;39.01;93335.91;6086884;23;20032;-92
2023/10/17 11:55:03;;;;;;;180.60;91.68;;;;;;;19.53;38.75;93334.63;6129803;23;20021;-94
2023/10/17 11:57:31;;;;;;;157.73;86.00;;;;;;;19.53;39.12;93337.38;6111985;23;20009;-90
2023/10/17 12:02:42;;;;;;;151.98;79.90;;;;;;;19.57;39.30;93337.84;6134820;23;20041;-90
2023/10/17 12:05:17;;;;;;;143.35;78.35;;;;;;;19.59;39.42;93351.75;6135717;23;20002;-89
2023/10/17 12:07:49;;;;;;;132.10;70.85;;;;;;;19.59;38.95;93351.03;6122132;23;20018;-93
2023/10/17 12:10:26;;;;;;;124.38;69.10;;;;;;;19.59;38.97;93342.78;6117789;23;20109;-93
2023/10/17 12:12:52;;;;;;;167.85;90.15;;;;;;;19.59;38.83;93348.28;6160705;23;20085;-89
2023/10/17 12:15:20;;;;;;;155.27;81.28;;;;;;;19.61;39.14;93351.25;6108485;23;20021;-91
2023/10/17 12:17:50;;;;;;;169.85;99.25;;;;;;;19.60;39.10;93342.28;6132327;23;20086;-93
2023/10/17 12:20:16;;;;;;;152.48;86.93;;;;;;;19.58;39.34;93344.06;6109405;23;20014;-92
2023/10/17 12:22:42;;;;;;;179.38;97.28;;;;;;;19.57;39.17;93339.84;6128936;23;20033;-91
2023/10/17 12:25:16;;;;;;;156.85;91.00;;;;;;;19.58;39.36;93335.84;6082447;23;20061;-91
2023/10/17 12:27:41;;;;;;;186.25;102.10;;;;;;;19.57;39.35;93339.84;6110623;23;20033;-89
2023/10/17 12:30:10;;;;;;;201.00;107.55;;;;;;;19.59;39.25;93331.81;6108068;23;20014;-92
2023/10/17 12:32:36;;;;;;;203.18;110.60;;;;;;;19.65;39.27;93330.50;6105995;23;20032;-91
2023/10/17 12:35:12;;;;;;;204.82;114.40;;;;;;;19.69;38.66;93328.19;6103771;23;20014;-92
2023/10/17 12:37:43;;;;;;;298.85;182.00;;;;;;;19.81;39.76;93329.50;5961674;23;20164;-93
2023/10/17 12:40:18;;;;;;;197.48;117.13;;;;;;;19.84;38.90;93336.69;5961479;23;20095;-88
2023/10/17 12:42:46;;;;;;;181.32;106.78;;;;;;;19.84;39.47;93342.19;5951701;23;20023;-89
2023/10/17 12:45:14;;;;;;;190.43;114.97;;;;;;;19.83;39.32;93332.47;5982689;23;20088;-90
2023/10/17 12:47:43;;;;;;;169.82;106.65;;;;;;;19.88;39.12;93347.38;5959549;23;20024;-90
2023/10/17 12:50:16;;;;;;;173.27;101.78;;;;;;;19.88;38.89;93341.88;5959997;23;20027;-90
2023/10/17 12:52:41;;;;;;;161.82;93.55;;;;;;;19.85;38.83;93340.91;5933033;24;20068;-90
2023/10/17 12:55:07;;;;;;;152.35;91.25;;;;;;;19.82;38.83;93325.50;5951828;24;20024;-90
2023/10/17 12:57:38;;;;;;;133.23;81.38;;;;;;;19.79;39.01;93329.28;5927285;24;20020;-90
2023/10/17 13:00:09;;;;;;;173.73;100.32;;;;;;;19.77;38.83;93333.81;5928920;24;20027;-91
2023/10/17 13:02:38;;;;;;;164.07;94.28;;;;;;;19.77;38.94;93339.28;5932348;24;20028;-92
2023/10/17 13:05:09;;;;;;;166.35;96.75;;;;;;;19.67;38.67;93330.72;5929263;24;20353;-92
2023/10/17 13:07:36;;;;;;;151.15;83.95;;;;;;;19.59;37.23;93345.53;5936738;24;20027;-90
2023/10/17 13:10:03;;;;;;;139.95;76.63;;;;;;;19.56;37.52;93339.09;5928800;24;20525;-90
2023/10/17 13:12:29;;;;;;;152.27;86.82;;;;;;;19.57;37.46;93332.34;5913875;24;20071;-90
2023/10/17 13:14:55;;;;;;;136.50;75.32;;;;;;;19.55;37.99;93332.13;5931820;24;20461;-91
2023/10/17 13:17:21;;;;;;;154.05;96.68;;;;;;;19.59;38.08;93323.59;5934631;24;20066;-91
2023/10/17 13:19:49;;;;;;;159.32;93.90;;;;;;;19.59;38.98;93321.59;5941420;24;20079;-91
2023/10/17 13:22:17;;;;;;;163.65;100.13;;;;;;;19.60;38.72;93319.59;5972513;23;20127;-91
2023/10/17 13:24:47;;;;;;;215.73;134.82;;;;;;;19.58;38.52;93311.91;5996961;23;20022;-91
2023/10/17 13:27:13;;;;;;;236.27;141.18;;;;;;;19.60;38.63;93323.09;6029691;23;20026;-92
2023/10/17 13:29:39;;;;;;;257.90;152.30;;;;;;;19.61;38.84;93313.59;6076526;23;20028;-92
2023/10/17 13:32:07;;;;;;;240.27;140.82;;;;;;;19.65;39.32;93324.28;6057076;23;20093;-91
2023/10/17 13:34:41;;;;;;;266.75;156.85;;;;;;;19.64;39.00;93331.75;6031635;23;20121;-90
2023/10/17 13:37:11;;;;;;;283.80;167.48;;;;;;;19.72;38.93;93318.16;6028025;23;20027;-89
2023/10/17 13:39:39;;;;;;;295.05;175.18;;;;;;;19.64;38.99;93318.03;5994755;23;20122;-91
2023/10/17 13:42:06;;;;;;;274.65;168.43;;;;;;;19.64;39.27;93328.28;5987058;23;20103;-91
2023/10/17 13:44:31;;;;;;;301.80;178.60;;;;;;;19.69;39.04;93324.72;5986940;23;20023;-90